Time,TemperatureF,DewpointF,PressureIn,WindDirection,WindDirectionDegrees,WindSpeedMPH,WindSpeedGustMPH,Humidity,HourlyPrecipIn,Conditions,Clouds,dailyrainin,SoftwareType,DateUTC
2013-11-17 00:00:00,49.8,42.9,30.09,SW,235,1.0,7.0,77,0.00,,OVC,0.00,VWS V14.01,2013-11-17 05:00:00,
2013-11-17 00:01:00,50.0,42.4,30.10,SSW,212,4.0,8.0,75,0.00,,CLR,0.00,VWS V14.01,2013-11-17 05:01:00,
2013-11-17 00:02:00,50.0,42.4,30.10,SSW,212,2.0,8.0,75,0.00,,CLR,0.00,VWS V14.01,2013-11-17 05:02:00,
2013-11-17 00:04:00,49.9,42.3,30.10,SW,221,2.0,6.0,75,0.00,,CLR,0.00,VWS V14.01,2013-11-17 05:04:00,
2013-11-17 00:06:00,49.9,42.3,30.10,SW,219,4.0,6.0,75,0.00,,CLR,0.00,VWS V14.01,2013-11-17 05:06:00,
2013-11-17 00:11:00,50.0,42.4,30.10,SW,232,5.0,9.0,75,0.00,,CLR,0.00,VWS V14.01,2013-11-17 05:11:00,
2013-11-17 00:16:00,50.0,42.7,30.10,SW,229,5.0,9.0,76,0.00,,CLR,0.00,VWS V14.01,2013-11-17 05:16:00,
2013-11-17 00:21:00,50.0,42.7,30.09,SW,226,4.0,9.0,76,0.00,,CLR,0.00,VWS V14.01,2013-11-17 05:21:00,
2013-11-17 00:26:00,50.0,42.7,30.10,SW,226,6.0,9.0,76,0.00,,CLR,0.00,VWS V14.01,2013-11-17 05:26:00,
2013-11-17 00:30:00,49.4,43.2,30.09,SW,231,2.0,5.0,79,0.00,,OVC,0.00,VWS V14.01,2013-11-17 05:30:00,
2013-11-17 00:31:00,50.1,42.8,30.09,SW,224,4.0,10.0,76,0.00,,CLR,0.00,VWS V14.01,2013-11-17 05:31:00,
2013-11-17 00:36:00,50.0,42.7,30.10,SW,229,3.0,6.0,76,0.00,,CLR,0.00,VWS V14.01,2013-11-17 05:36:00,
2013-11-17 00:41:00,49.9,42.7,30.09,SW,225,4.0,6.0,76,0.00,,CLR,0.00,VWS V14.01,2013-11-17 05:41:00,
2013-11-17 00:47:00,49.9,42.7,30.09,SW,221,3.0,6.0,76,0.00,,CLR,0.00,VWS V14.01,2013-11-17 05:47:00,
2013-11-17 00:52:00,49.8,42.9,30.09,SSW,203,2.0,7.0,77,0.00,,CLR,0.00,VWS V14.01,2013-11-17 05:52:00,
2013-11-17 00:57:00,49.8,42.9,30.09,SW,229,1.0,7.0,77,0.00,,CLR,0.00,VWS V14.01,2013-11-17 05:57:00,
2013-11-17 01:00:00,49.6,43.4,30.10,SSW,194,2.0,5.0,79,0.00,,OVC,0.00,VWS V14.01,2013-11-17 06:00:00,
2013-11-17 01:02:00,49.8,42.9,30.09,SW,218,1.0,7.0,77,0.00,,CLR,0.00,VWS V14.01,2013-11-17 06:02:00,
2013-11-17 01:07:00,49.7,42.8,30.09,SW,228,0.0,4.0,77,0.00,,CLR,0.00,VWS V14.01,2013-11-17 06:07:00,
2013-11-17 01:12:00,49.6,43.0,30.08,SSW,205,1.0,4.0,78,0.00,,CLR,0.00,VWS V14.01,2013-11-17 06:12:00,
2013-11-17 01:17:00,49.5,42.9,30.08,SW,223,1.0,4.0,78,0.00,,CLR,0.00,VWS V14.01,2013-11-17 06:17:00,
2013-11-17 01:22:00,49.3,42.7,30.08,WSW,245,0.0,5.0,78,0.00,,CLR,0.00,VWS V14.01,2013-11-17 06:22:00,
2013-11-17 01:27:00,49.3,43.1,30.09,SW,236,2.0,5.0,79,0.00,,CLR,0.00,VWS V14.01,2013-11-17 06:27:00,
2013-11-17 01:30:00,49.4,43.8,30.09,SSW,208,4.0,6.0,81,0.00,,OVC,0.00,VWS V14.01,2013-11-17 06:30:00,
2013-11-17 01:32:00,49.3,43.1,30.09,SW,235,4.0,5.0,79,0.00,,CLR,0.00,VWS V14.01,2013-11-17 06:32:00,
2013-11-17 01:37:00,49.4,43.2,30.10,SW,225,3.0,4.0,79,0.00,,CLR,0.00,VWS V14.01,2013-11-17 06:37:00,
2013-11-17 01:42:00,49.4,43.2,30.10,SSW,207,2.0,4.0,79,0.00,,CLR,0.00,VWS V14.01,2013-11-17 06:42:00,
2013-11-17 01:48:00,49.4,43.2,30.10,SSW,204,0.0,4.0,79,0.00,,CLR,0.00,VWS V14.01,2013-11-17 06:48:00,
2013-11-17 01:53:00,49.5,43.6,30.10,SSW,197,1.0,4.0,80,0.00,,CLR,0.00,VWS V14.01,2013-11-17 06:53:00,
2013-11-17 01:58:00,49.5,43.6,30.09,South,176,2.0,4.0,80,0.00,,CLR,0.00,VWS V14.01,2013-11-17 06:58:00,
2013-11-17 02:00:00,49.4,44.5,30.08,SSW,205,4.0,7.0,83,0.00,,OVC,0.00,VWS V14.01,2013-11-17 07:00:00,
2013-11-17 02:03:00,49.6,43.4,30.10,SSW,203,2.0,5.0,79,0.00,,CLR,0.00,VWS V14.01,2013-11-17 07:03:00,
2013-11-17 02:08:00,49.7,43.8,30.10,SSW,194,2.0,4.0,80,0.00,,CLR,0.00,VWS V14.01,2013-11-17 07:08:00,
2013-11-17 02:13:00,49.6,43.7,30.10,SSW,195,4.0,5.0,80,0.00,,CLR,0.00,VWS V14.01,2013-11-17 07:13:00,
2013-11-17 02:18:00,49.5,43.6,30.10,SSW,193,4.0,5.0,80,0.00,,CLR,0.00,VWS V14.01,2013-11-17 07:18:00,
2013-11-17 02:23:00,49.5,43.6,30.10,South,169,2.0,6.0,80,0.00,,CLR,0.00,VWS V14.01,2013-11-17 07:23:00,
2013-11-17 02:28:00,49.5,43.9,30.09,SSE,161,3.0,6.0,81,0.00,,CLR,0.00,VWS V14.01,2013-11-17 07:28:00,
2013-11-17 02:30:00,49.8,45.2,30.07,SSW,203,3.0,9.0,84,0.00,,OVC,0.00,VWS V14.01,2013-11-17 07:30:00,
2013-11-17 02:33:00,49.4,43.8,30.09,SW,226,4.0,4.0,81,0.00,,CLR,0.00,VWS V14.01,2013-11-17 07:33:00,
2013-11-17 02:39:00,49.4,44.1,30.09,SSW,193,2.0,5.0,82,0.00,,CLR,0.00,VWS V14.01,2013-11-17 07:39:00,
2013-11-17 02:44:00,49.5,44.2,30.09,SW,219,4.0,6.0,82,0.00,,CLR,0.00,VWS V14.01,2013-11-17 07:44:00,
2013-11-17 02:49:00,49.5,44.2,30.09,SSW,204,3.0,6.0,82,0.00,,CLR,0.00,VWS V14.01,2013-11-17 07:49:00,
2013-11-17 02:54:00,49.5,44.2,30.08,SSE,165,2.0,6.0,82,0.00,,CLR,0.00,VWS V14.01,2013-11-17 07:54:00,
2013-11-17 02:59:00,49.5,44.2,30.08,SSW,205,4.0,6.0,82,0.00,,CLR,0.00,VWS V14.01,2013-11-17 07:59:00,
2013-11-17 03:00:00,49.9,45.3,30.06,East,80,0.0,9.0,84,0.00,,OVC,0.00,VWS V14.01,2013-11-17 08:00:00,
2013-11-17 03:04:00,49.4,44.5,30.08,SSW,208,4.0,4.0,83,0.00,,BKN020,0.00,VWS V14.01,2013-11-17 08:04:00,
2013-11-17 03:09:00,49.4,44.5,30.08,South,185,3.0,6.0,83,0.00,,BKN020,0.00,VWS V14.01,2013-11-17 08:09:00,
2013-11-17 03:14:00,49.5,44.6,30.07,SSW,204,5.0,7.0,83,0.00,,BKN020,0.00,VWS V14.01,2013-11-17 08:14:00,
2013-11-17 03:19:00,49.6,45.0,30.07,South,188,4.0,7.0,84,0.00,,BKN020,0.00,VWS V14.01,2013-11-17 08:19:00,
2013-11-17 03:24:00,49.6,45.0,30.07,SSW,195,4.0,9.0,84,0.00,,BKN020,0.00,VWS V14.01,2013-11-17 08:24:00,
2013-11-17 03:29:00,49.7,45.1,30.06,SSW,197,6.0,9.0,84,0.00,,BKN020,0.00,VWS V14.01,2013-11-17 08:29:00,
2013-11-17 03:30:00,50.7,46.0,30.02,SE,145,3.0,5.0,84,0.00,,OVC,0.00,VWS V14.01,2013-11-17 08:30:00,
2013-11-17 03:35:00,49.8,45.2,30.07,WSW,239,6.0,6.0,84,0.00,,BKN020,0.00,VWS V14.01,2013-11-17 08:35:00,
2013-11-17 03:40:00,49.9,45.3,30.07,SW,221,5.0,9.0,84,0.00,,BKN020,0.00,VWS V14.01,2013-11-17 08:40:00,
2013-11-17 03:45:00,49.9,45.3,30.07,SSW,205,2.0,9.0,84,0.00,,OVC020,0.00,VWS V14.01,2013-11-17 08:45:00,
2013-11-17 03:50:00,49.9,45.3,30.06,SSE,167,1.0,9.0,84,0.00,,OVC020,0.00,VWS V14.01,2013-11-17 08:50:00,
2013-11-17 03:55:00,49.9,45.3,30.06,South,179,1.0,9.0,84,0.00,,OVC020,0.00,VWS V14.01,2013-11-17 08:55:00,
2013-11-17 04:00:00,49.9,45.3,30.06,East,91,1.0,9.0,84,0.00,,OVC020,0.00,VWS V14.01,2013-11-17 09:00:00,
2013-11-17 04:05:00,49.8,45.2,30.05,SSE,149,0.0,1.0,84,0.00,,OVC020,0.00,VWS V14.01,2013-11-17 09:05:00,
2013-11-17 04:10:00,49.9,45.3,30.05,South,169,1.0,2.0,84,0.00,,OVC020,0.00,VWS V14.01,2013-11-17 09:10:00,
2013-11-17 04:15:00,50.0,45.7,30.05,SW,222,3.0,3.0,85,0.00,,OVC020,0.00,VWS V14.01,2013-11-17 09:15:00,
2013-11-17 04:20:00,50.3,46.0,30.05,SSW,200,1.0,4.0,85,0.00,,OVC020,0.00,VWS V14.01,2013-11-17 09:20:00,
2013-11-17 04:25:00,50.5,45.8,30.03,SSE,166,1.0,4.0,84,0.00,,OVC020,0.00,VWS V14.01,2013-11-17 09:25:00,
2013-11-17 04:30:00,50.6,46.0,30.03,SE,124,1.0,5.0,84,0.00,,OVC020,0.00,VWS V14.01,2013-11-17 09:30:00,
2013-11-17 04:36:00,50.8,46.2,30.02,South,173,3.0,4.0,84,0.00,,OVC020,0.00,VWS V14.01,2013-11-17 09:36:00,
2013-11-17 04:41:00,50.8,46.2,30.02,SE,139,1.0,8.0,84,0.00,,OVC020,0.00,VWS V14.01,2013-11-17 09:41:00,
2013-11-17 04:46:00,50.9,46.2,30.01,SW,219,1.0,8.0,84,0.00,,BKN018,0.00,VWS V14.01,2013-11-17 09:46:00,
2013-11-17 04:51:00,51.0,46.3,30.01,SE,129,5.0,8.0,84,0.00,,BKN018,0.00,VWS V14.01,2013-11-17 09:51:00,
2013-11-17 04:56:00,51.0,46.3,30.02,SSW,193,3.0,8.0,84,0.00,,BKN018,0.00,VWS V14.01,2013-11-17 09:56:00,
2013-11-17 05:00:00,51.9,47.5,30.00,SW,229,8.0,14.0,85,0.00,,OVC,0.00,VWS V14.01,2013-11-17 10:00:00,
2013-11-17 05:01:00,51.0,46.3,30.02,South,183,2.0,8.0,84,0.00,,BKN018,0.00,VWS V14.01,2013-11-17 10:01:00,
2013-11-17 05:06:00,51.0,46.3,30.01,SSW,205,3.0,4.0,84,0.00,,BKN018,0.00,VWS V14.01,2013-11-17 10:06:00,
2013-11-17 05:11:00,50.9,46.6,30.01,SSW,197,4.0,5.0,85,0.00,,BKN018,0.00,VWS V14.01,2013-11-17 10:11:00,
2013-11-17 05:16:00,51.0,46.7,30.01,SSW,194,2.0,5.0,85,0.00,,BKN018,0.00,VWS V14.01,2013-11-17 10:16:00,
2013-11-17 05:21:00,51.1,46.8,30.01,SW,222,6.0,8.0,85,0.00,,BKN018,0.00,VWS V14.01,2013-11-17 10:21:00,
2013-11-17 05:27:00,51.3,47.0,30.01,WSW,241,5.0,9.0,85,0.00,,BKN018,0.00,VWS V14.01,2013-11-17 10:27:00,
2013-11-17 05:30:00,52.0,48.0,30.00,SSW,203,4.0,14.0,86,0.00,,OVC,0.00,VWS V14.01,2013-11-17 10:30:00,
2013-11-17 05:32:00,51.4,47.0,30.02,SW,224,8.0,10.0,85,0.00,,BKN018,0.00,VWS V14.01,2013-11-17 10:32:00,
2013-11-17 05:37:00,51.6,47.2,30.01,WSW,238,6.0,8.0,85,0.00,,BKN018,0.00,VWS V14.01,2013-11-17 10:37:00,
2013-11-17 05:42:00,51.6,47.2,30.01,SSW,207,5.0,11.0,85,0.00,,BKN018,0.00,VWS V14.01,2013-11-17 10:42:00,
2013-11-17 05:47:00,51.8,47.4,30.01,SW,219,5.0,12.0,85,0.00,,BKN018,0.00,VWS V14.01,2013-11-17 10:47:00,
2013-11-17 05:52:00,51.8,47.4,30.00,SW,226,6.0,14.0,85,0.00,,BKN018,0.00,VWS V14.01,2013-11-17 10:52:00,
2013-11-17 05:57:00,51.8,47.4,30.00,SSW,208,7.0,14.0,85,0.00,,BKN018,0.00,VWS V14.01,2013-11-17 10:57:00,
2013-11-17 06:00:00,52.1,48.0,30.00,SW,231,6.0,11.0,86,0.00,,OVC,0.00,VWS V14.01,2013-11-17 11:00:00,
2013-11-17 06:02:00,51.9,47.5,30.00,SSW,210,6.0,14.0,85,0.00,,BKN018,0.00,VWS V14.01,2013-11-17 11:02:00,
2013-11-17 06:07:00,51.9,47.5,29.99,SW,229,10.0,12.0,85,0.00,,BKN018,0.00,VWS V14.01,2013-11-17 11:07:00,
2013-11-17 06:13:00,52.0,47.6,29.99,WSW,240,12.0,14.0,85,0.00,,BKN018,0.00,VWS V14.01,2013-11-17 11:13:00,
2013-11-17 06:18:00,51.9,47.5,29.99,SW,229,7.0,14.0,85,0.00,,BKN018,0.00,VWS V14.01,2013-11-17 11:18:00,
2013-11-17 06:23:00,52.0,47.6,30.00,SW,223,8.0,14.0,85,0.00,,BKN018,0.00,VWS V14.01,2013-11-17 11:23:00,
2013-11-17 06:28:00,52.0,47.6,30.00,SSW,210,4.0,14.0,85,0.00,,BKN018,0.00,VWS V14.01,2013-11-17 11:28:00,
2013-11-17 06:30:00,51.6,48.5,30.00,SW,228,7.0,9.0,89,0.00,,OVC,0.00,VWS V14.01,2013-11-17 11:30:00,
2013-11-17 06:33:00,52.0,48.0,30.00,SSW,203,4.0,14.0,86,0.00,,BKN018,0.00,VWS V14.01,2013-11-17 11:33:00,
2013-11-17 06:38:00,52.0,48.0,29.99,South,191,5.0,11.0,86,0.00,,BKN018,0.00,VWS V14.01,2013-11-17 11:38:00,
2013-11-17 06:43:00,52.0,48.0,29.99,SW,226,6.0,11.0,86,0.00,,BKN018,0.00,VWS V14.01,2013-11-17 11:43:00,
2013-11-17 06:48:00,52.0,48.0,30.00,SW,218,6.0,11.0,86,0.00,,OVC016,0.00,VWS V14.01,2013-11-17 11:48:00,
2013-11-17 06:53:00,52.0,48.0,29.99,SW,215,4.0,11.0,86,0.00,,OVC016,0.00,VWS V14.01,2013-11-17 11:53:00,
2013-11-17 06:59:00,52.0,48.0,30.00,WSW,238,10.0,11.0,86,0.00,,OVC016,0.00,VWS V14.01,2013-11-17 11:59:00,
2013-11-17 07:00:00,52.1,49.0,30.00,SW,224,4.0,9.0,89,0.00,,OVC,0.00,VWS V14.01,2013-11-17 12:00:00,
2013-11-17 07:04:00,52.1,48.0,30.00,SW,223,6.0,6.0,86,0.00,,OVC016,0.00,VWS V14.01,2013-11-17 12:04:00,
2013-11-17 07:09:00,52.2,48.2,30.00,SSW,200,3.0,9.0,86,0.00,,OVC016,0.00,VWS V14.01,2013-11-17 12:09:00,
2013-11-17 07:14:00,52.2,48.2,30.00,SW,222,5.0,9.0,86,0.00,,OVC016,0.00,VWS V14.01,2013-11-17 12:14:00,
2013-11-17 07:19:00,52.0,48.3,29.99,SSW,201,2.0,9.0,87,0.00,,OVC016,0.00,VWS V14.01,2013-11-17 12:19:00,
2013-11-17 07:24:00,51.8,48.4,30.00,SSW,207,3.0,9.0,88,0.00,,OVC016,0.00,VWS V14.01,2013-11-17 12:24:00,
2013-11-17 07:29:00,51.6,48.5,30.00,SW,219,3.0,9.0,89,0.00,,OVC016,0.00,VWS V14.01,2013-11-17 12:29:00,
2013-11-17 07:30:00,52.0,49.2,30.00,SW,233,5.0,10.0,90,0.00,,OVC,0.00,VWS V14.01,2013-11-17 12:30:00,
2013-11-17 07:34:00,51.6,48.5,30.00,SW,224,5.0,9.0,89,0.00,,OVC016,0.00,VWS V14.01,2013-11-17 12:34:00,
2013-11-17 07:39:00,51.7,48.6,30.00,SW,228,5.0,9.0,89,0.00,,OVC016,0.00,VWS V14.01,2013-11-17 12:39:00,
2013-11-17 07:45:00,51.7,48.6,30.00,SW,218,4.0,9.0,89,0.00,,OVC016,0.00,VWS V14.01,2013-11-17 12:45:00,
2013-11-17 07:50:00,51.7,48.6,30.00,SW,215,3.0,9.0,89,0.00,,OVC016,0.00,VWS V14.01,2013-11-17 12:50:00,
2013-11-17 07:55:00,51.8,48.7,30.00,SW,233,3.0,9.0,89,0.00,,OVC016,0.00,VWS V14.01,2013-11-17 12:55:00,
2013-11-17 08:00:00,51.9,48.8,30.00,SW,229,5.0,9.0,89,0.00,,OVC016,0.00,VWS V14.01,2013-11-17 13:00:00,
2013-11-17 08:05:00,52.2,49.1,30.00,SW,215,5.0,7.0,89,0.00,,OVC016,0.00,VWS V14.01,2013-11-17 13:05:00,
2013-11-17 08:10:00,52.3,48.9,30.00,SW,217,5.0,7.0,88,0.00,,OVC016,0.00,VWS V14.01,2013-11-17 13:10:00,
2013-11-17 08:15:00,52.3,49.2,30.00,SW,215,2.0,7.0,89,0.00,,OVC016,0.00,VWS V14.01,2013-11-17 13:15:00,
2013-11-17 08:20:00,52.1,49.3,30.00,SW,225,5.0,7.0,90,0.00,,OVC016,0.00,VWS V14.01,2013-11-17 13:20:00,
2013-11-17 08:25:00,52.1,49.3,30.00,SW,226,7.0,9.0,90,0.00,,OVC016,0.00,VWS V14.01,2013-11-17 13:25:00,
2013-11-17 08:30:00,52.3,49.8,29.98,WSW,239,8.0,12.0,91,0.01,,OVC,0.01,VWS V14.01,2013-11-17 13:30:00,
2013-11-17 08:31:00,52.0,49.2,30.00,SW,227,5.0,9.0,90,0.00,,OVC016,0.00,VWS V14.01,2013-11-17 13:31:00,
2013-11-17 08:36:00,52.0,49.2,30.00,South,191,5.0,7.0,90,0.00,,OVC016,0.00,VWS V14.01,2013-11-17 13:36:00,
2013-11-17 08:41:00,52.0,49.2,30.00,SSW,201,4.0,8.0,90,0.00,,OVC016,0.00,VWS V14.01,2013-11-17 13:41:00,
2013-11-17 08:46:00,52.0,49.2,30.00,SSW,205,4.0,8.0,90,0.00,,OVC090,0.00,VWS V14.01,2013-11-17 13:46:00,
2013-11-17 08:51:00,52.0,49.2,30.00,SSW,212,4.0,8.0,90,0.00,,OVC090,0.00,VWS V14.01,2013-11-17 13:51:00,
2013-11-17 08:56:00,52.0,49.2,30.00,SW,226,4.0,9.0,90,0.00,,OVC090,0.00,VWS V14.01,2013-11-17 13:56:00,
2013-11-17 09:00:00,52.6,50.0,29.98,WSW,248,2.0,11.0,91,0.01,,OVC,0.01,VWS V14.01,2013-11-17 14:00:00,
2013-11-17 09:01:00,52.2,49.4,29.99,SW,228,3.0,9.0,90,0.00,,-RA,0.00,VWS V14.01,2013-11-17 14:01:00,
2013-11-17 09:06:00,52.3,49.5,29.99,WSW,249,7.0,11.0,90,0.00,,-RA,0.00,VWS V14.01,2013-11-17 14:06:00,
2013-11-17 09:11:00,52.4,49.6,29.99,SW,231,2.0,11.0,90,0.00,,-RA,0.00,VWS V14.01,2013-11-17 14:11:00,
2013-11-17 09:16:00,52.4,49.6,29.98,SW,224,4.0,11.0,90,0.00,,-RA,0.00,VWS V14.01,2013-11-17 14:16:00,
2013-11-17 09:22:00,52.3,49.5,29.98,SW,216,6.0,11.0,90,0.00,,-RA,0.00,VWS V14.01,2013-11-17 14:22:00,
2013-11-17 09:27:00,52.4,49.6,29.98,SW,221,5.0,12.0,90,0.00,,-RA,0.00,VWS V14.01,2013-11-17 14:27:00,
2013-11-17 09:30:00,53.0,50.5,29.96,SW,236,4.0,10.0,91,0.01,,OVC,0.01,VWS V14.01,2013-11-17 14:30:00,
2013-11-17 09:32:00,52.3,49.8,29.98,SW,218,4.0,12.0,91,0.01,,-RA,0.01,VWS V14.01,2013-11-17 14:32:00,
2013-11-17 09:37:00,52.4,49.8,29.98,SSW,197,6.0,11.0,91,0.01,,-RA,0.01,VWS V14.01,2013-11-17 14:37:00,
2013-11-17 09:42:00,52.4,49.8,29.98,SW,218,5.0,11.0,91,0.01,,-RA,0.01,VWS V14.01,2013-11-17 14:42:00,
2013-11-17 09:47:00,52.4,49.8,29.98,SW,228,5.0,11.0,91,0.01,,OVC095,0.01,VWS V14.01,2013-11-17 14:47:00,
2013-11-17 09:52:00,52.4,49.8,29.98,SSW,212,4.0,11.0,91,0.01,,OVC095,0.01,VWS V14.01,2013-11-17 14:52:00,
2013-11-17 09:57:00,52.5,50.0,29.98,SSW,206,4.0,11.0,91,0.01,,OVC095,0.01,VWS V14.01,2013-11-17 14:57:00,
2013-11-17 10:00:00,53.5,50.7,29.94,SSW,203,5.0,9.0,90,0.00,,OVC,0.01,VWS V14.01,2013-11-17 15:00:00,
2013-11-17 10:02:00,52.6,50.0,29.98,South,180,3.0,11.0,91,0.01,,-RA,0.01,VWS V14.01,2013-11-17 15:02:00,
2013-11-17 10:07:00,52.6,50.0,29.98,SW,219,5.0,7.0,91,0.01,,-RA,0.01,VWS V14.01,2013-11-17 15:07:00,
2013-11-17 10:13:00,52.6,50.0,29.97,WSW,238,7.0,10.0,91,0.01,,-RA,0.01,VWS V14.01,2013-11-17 15:13:00,
2013-11-17 10:18:00,52.6,50.3,29.98,SSW,200,4.0,10.0,92,0.01,,-RA,0.01,VWS V14.01,2013-11-17 15:18:00,
2013-11-17 10:23:00,52.7,50.5,29.97,SW,231,4.0,10.0,92,0.01,,-RA,0.01,VWS V14.01,2013-11-17 15:23:00,
2013-11-17 10:28:00,52.9,50.3,29.97,SSW,197,3.0,10.0,91,0.01,,-RA,0.01,VWS V14.01,2013-11-17 15:28:00,
2013-11-17 10:30:00,53.8,50.9,29.92,SSW,203,3.0,7.0,90,0.00,,OVC,0.01,VWS V14.01,2013-11-17 15:30:00,
2013-11-17 10:33:00,53.0,50.5,29.96,SW,236,4.0,10.0,91,0.01,,-RA,0.01,VWS V14.01,2013-11-17 15:33:00,
2013-11-17 10:38:00,53.1,50.5,29.96,WSW,246,6.0,9.0,91,0.00,,-RA,0.01,VWS V14.01,2013-11-17 15:38:00,
2013-11-17 10:43:00,53.2,50.7,29.96,SW,226,3.0,9.0,91,0.00,,-RA,0.01,VWS V14.01,2013-11-17 15:43:00,
2013-11-17 10:48:00,53.3,50.7,29.96,SW,224,4.0,9.0,91,0.00,,-RA,0.01,VWS V14.01,2013-11-17 15:48:00,
2013-11-17 10:53:00,53.4,50.8,29.95,SW,215,2.0,9.0,91,0.00,,-RA,0.01,VWS V14.01,2013-11-17 15:53:00,
2013-11-17 10:58:00,53.4,50.8,29.95,WSW,238,5.0,9.0,91,0.00,,-RA,0.01,VWS V14.01,2013-11-17 15:58:00,
2013-11-17 11:00:00,54.2,51.0,29.91,SSW,193,3.0,10.0,89,0.00,,OVC,0.01,VWS V14.01,2013-11-17 16:00:00,
2013-11-17 11:04:00,53.5,50.6,29.94,SW,219,6.0,7.0,90,0.00,,-RA,0.01,VWS V14.01,2013-11-17 16:04:00,
2013-11-17 11:09:00,53.5,50.6,29.94,SSW,211,3.0,7.0,90,0.00,,-RA,0.01,VWS V14.01,2013-11-17 16:09:00,
2013-11-17 11:14:00,53.6,50.7,29.94,WSW,238,6.0,7.0,90,0.00,,-RA,0.01,VWS V14.01,2013-11-17 16:14:00,
2013-11-17 11:19:00,53.6,51.0,29.93,SW,215,4.0,7.0,91,0.00,,-RA,0.01,VWS V14.01,2013-11-17 16:19:00,
2013-11-17 11:24:00,53.6,51.0,29.93,WSW,250,5.0,7.0,91,0.00,,-RA,0.01,VWS V14.01,2013-11-17 16:24:00,
2013-11-17 11:29:00,53.7,50.8,29.93,South,180,4.0,7.0,90,0.00,,-RA,0.01,VWS V14.01,2013-11-17 16:29:00,
2013-11-17 11:30:00,54.8,51.6,29.89,SSW,203,6.0,12.0,89,0.00,,OVC,0.01,VWS V14.01,2013-11-17 16:30:00,
2013-11-17 11:34:00,53.9,51.0,29.93,SW,224,3.0,6.0,90,0.00,,-RA,0.01,VWS V14.01,2013-11-17 16:34:00,
2013-11-17 11:39:00,53.9,51.0,29.92,SSW,196,2.0,8.0,90,0.00,,-RA,0.01,VWS V14.01,2013-11-17 16:39:00,
2013-11-17 11:44:00,54.0,51.1,29.92,SSW,200,4.0,8.0,90,0.00,,-RA,0.01,VWS V14.01,2013-11-17 16:44:00,
2013-11-17 11:50:00,54.1,51.2,29.92,SW,225,7.0,8.0,90,0.00,,-RA,0.01,VWS V14.01,2013-11-17 16:50:00,
2013-11-17 11:55:00,54.1,50.9,29.92,SSW,201,3.0,10.0,89,0.00,,-RA,0.01,VWS V14.01,2013-11-17 16:55:00,
2013-11-17 12:00:00,54.2,51.0,29.91,SW,215,4.0,10.0,89,0.00,,-RA,0.01,VWS V14.01,2013-11-17 17:00:00,
2013-11-17 12:05:00,54.2,51.0,29.91,SSW,208,4.0,9.0,89,0.00,,-RA,0.01,VWS V14.01,2013-11-17 17:05:00,
2013-11-17 12:10:00,54.3,51.4,29.91,SSW,210,4.0,12.0,90,0.00,,-RA,0.01,VWS V14.01,2013-11-17 17:10:00,
2013-11-17 12:15:00,54.5,51.3,29.91,SW,225,8.0,12.0,89,0.00,,-RA,0.01,VWS V14.01,2013-11-17 17:15:00,
2013-11-17 12:20:00,54.6,51.4,29.90,SW,225,4.0,12.0,89,0.00,,-RA,0.01,VWS V14.01,2013-11-17 17:20:00,
2013-11-17 12:25:00,54.6,51.4,29.90,SW,226,6.0,12.0,89,0.00,,-RA,0.01,VWS V14.01,2013-11-17 17:25:00,
2013-11-17 12:30:00,54.7,51.5,29.90,SW,221,6.0,12.0,89,0.00,,-RA,0.01,VWS V14.01,2013-11-17 17:30:00,
2013-11-17 12:35:00,54.9,51.7,29.89,SW,229,6.0,8.0,89,0.00,,-RA,0.01,VWS V14.01,2013-11-17 17:35:00,
2013-11-17 12:40:00,55.0,51.5,29.89,SSE,165,5.0,9.0,88,0.00,,-RA,0.01,VWS V14.01,2013-11-17 17:40:00,
2013-11-17 12:45:00,55.1,51.9,29.89,SSW,200,3.0,9.0,89,0.00,,OVC100,0.01,VWS V14.01,2013-11-17 17:45:00,
2013-11-17 12:51:00,55.2,51.7,29.89,SSW,194,3.0,9.0,88,0.00,,OVC100,0.01,VWS V14.01,2013-11-17 17:51:00,
2013-11-17 12:56:00,55.3,51.8,29.89,SW,228,3.0,13.0,88,0.00,,OVC100,0.01,VWS V14.01,2013-11-17 17:56:00,
2013-11-17 13:00:00,57.1,52.3,29.87,WSW,242,11.0,15.0,84,0.00,,OVC,0.01,VWS V14.01,2013-11-17 18:00:00,
2013-11-17 13:01:00,55.5,52.0,29.89,SW,216,6.0,13.0,88,0.00,,OVC100,0.01,VWS V14.01,2013-11-17 18:01:00,
2013-11-17 13:06:00,55.6,52.1,29.89,SW,228,6.0,11.0,88,0.00,,OVC100,0.01,VWS V14.01,2013-11-17 18:06:00,
2013-11-17 13:11:00,55.7,51.9,29.88,SW,215,5.0,12.0,87,0.00,,OVC100,0.01,VWS V14.01,2013-11-17 18:11:00,
2013-11-17 13:16:00,55.8,52.0,29.88,SW,235,10.0,12.0,87,0.00,,OVC100,0.01,VWS V14.01,2013-11-17 18:16:00,
2013-11-17 13:21:00,55.9,52.1,29.88,SSW,208,5.0,12.0,87,0.00,,OVC100,0.01,VWS V14.01,2013-11-17 18:21:00,
2013-11-17 13:26:00,56.1,52.3,29.87,WSW,257,9.0,12.0,87,0.00,,OVC100,0.01,VWS V14.01,2013-11-17 18:26:00,
2013-11-17 13:30:00,57.2,52.4,29.84,SW,222,8.0,14.0,84,0.00,,OVC,0.01,VWS V14.01,2013-11-17 18:30:00,
2013-11-17 13:31:00,56.4,52.3,29.87,SSW,211,8.0,12.0,86,0.00,,OVC100,0.01,VWS V14.01,2013-11-17 18:31:00,
2013-11-17 13:36:00,56.5,52.4,29.86,SW,222,7.0,15.0,86,0.00,,OVC100,0.01,VWS V14.01,2013-11-17 18:36:00,
2013-11-17 13:42:00,56.7,52.6,29.86,SSW,205,7.0,15.0,86,0.00,,OVC100,0.01,VWS V14.01,2013-11-17 18:42:00,
2013-11-17 13:47:00,56.8,52.3,29.86,SW,219,10.0,15.0,85,0.00,,OVC017,0.01,VWS V14.01,2013-11-17 18:47:00,
2013-11-17 13:52:00,57.0,52.5,29.87,SW,215,9.0,15.0,85,0.00,,OVC017,0.01,VWS V14.01,2013-11-17 18:52:00,
2013-11-17 13:57:00,57.1,52.3,29.87,WSW,242,6.0,15.0,84,0.00,,OVC017,0.01,VWS V14.01,2013-11-17 18:57:00,
2013-11-17 14:00:00,57.2,52.4,29.83,SW,225,8.0,11.0,84,0.00,,OVC,0.01,VWS V14.01,2013-11-17 19:00:00,
2013-11-17 14:02:00,57.1,52.3,29.86,SW,232,12.0,15.0,84,0.00,,OVC017,0.01,VWS V14.01,2013-11-17 19:02:00,
2013-11-17 14:07:00,57.2,52.4,29.86,WSW,242,6.0,14.0,84,0.00,,OVC017,0.01,VWS V14.01,2013-11-17 19:07:00,
2013-11-17 14:12:00,57.2,52.4,29.85,SW,226,13.0,14.0,84,0.00,,OVC017,0.01,VWS V14.01,2013-11-17 19:12:00,
2013-11-17 14:17:00,57.2,52.7,29.85,SW,222,8.0,14.0,85,0.00,,OVC017,0.01,VWS V14.01,2013-11-17 19:17:00,
2013-11-17 14:22:00,57.1,52.6,29.85,South,190,5.0,14.0,85,0.00,,OVC017,0.01,VWS V14.01,2013-11-17 19:22:00,
2013-11-17 14:27:00,57.1,52.6,29.84,SW,215,7.0,14.0,85,0.00,,OVC017,0.01,VWS V14.01,2013-11-17 19:27:00,
2013-11-17 14:30:00,56.9,52.4,29.81,SSE,165,6.0,12.0,85,0.00,,OVC,0.01,VWS V14.01,2013-11-17 19:30:00,
2013-11-17 14:33:00,57.2,52.4,29.84,SSW,208,6.0,14.0,84,0.00,,OVC017,0.01,VWS V14.01,2013-11-17 19:33:00,
2013-11-17 14:38:00,57.1,52.6,29.84,SSW,208,5.0,10.0,85,0.00,,OVC017,0.01,VWS V14.01,2013-11-17 19:38:00,
2013-11-17 14:43:00,57.1,52.3,29.84,SSW,208,4.0,10.0,84,0.00,,OVC017,0.01,VWS V14.01,2013-11-17 19:43:00,
2013-11-17 14:48:00,57.2,52.4,29.84,SW,226,5.0,10.0,84,0.00,,BKN034,0.01,VWS V14.01,2013-11-17 19:48:00,
2013-11-17 14:53:00,57.1,52.6,29.83,SW,221,8.0,10.0,85,0.00,,BKN034,0.01,VWS V14.01,2013-11-17 19:53:00,
2013-11-17 14:58:00,57.1,52.6,29.83,WSW,243,6.0,10.0,85,0.00,,BKN034,0.01,VWS V14.01,2013-11-17 19:58:00,
2013-11-17 15:00:00,56.6,52.2,29.79,SSW,203,5.0,15.0,85,0.00,,OVC,0.01,VWS V14.01,2013-11-17 20:00:00,
2013-11-17 15:03:00,57.2,52.4,29.83,SW,231,6.0,8.0,84,0.00,,BKN034,0.01,VWS V14.01,2013-11-17 20:03:00,
2013-11-17 15:08:00,57.2,52.4,29.83,WSW,248,9.0,10.0,84,0.00,,BKN034,0.01,VWS V14.01,2013-11-17 20:08:00,
2013-11-17 15:13:00,57.2,52.4,29.82,SW,229,6.0,12.0,84,0.00,,BKN034,0.01,VWS V14.01,2013-11-17 20:13:00,
2013-11-17 15:19:00,57.1,52.3,29.81,SW,215,5.0,12.0,84,0.00,,BKN034,0.01,VWS V14.01,2013-11-17 20:19:00,
2013-11-17 15:24:00,57.0,52.2,29.81,SW,229,7.0,12.0,84,0.00,,BKN034,0.01,VWS V14.01,2013-11-17 20:24:00,
2013-11-17 15:29:00,56.9,52.1,29.81,South,176,4.0,12.0,84,0.00,,BKN034,0.01,VWS V14.01,2013-11-17 20:29:00,
2013-11-17 15:30:00,56.4,52.3,29.78,SSW,211,4.0,13.0,86,0.00,,OVC,0.01,VWS V14.01,2013-11-17 20:30:00,
2013-11-17 15:34:00,56.8,52.3,29.81,South,183,5.0,8.0,85,0.00,,BKN034,0.01,VWS V14.01,2013-11-17 20:34:00,
2013-11-17 15:39:00,56.7,52.2,29.81,SSW,211,6.0,10.0,85,0.00,,BKN034,0.01,VWS V14.01,2013-11-17 20:39:00,
2013-11-17 15:44:00,56.7,52.2,29.81,SSW,196,5.0,10.0,85,0.00,,BKN034,0.01,VWS V14.01,2013-11-17 20:44:00,
2013-11-17 15:49:00,56.7,52.2,29.81,South,181,6.0,15.0,85,0.00,,OVC029,0.01,VWS V14.01,2013-11-17 20:49:00,
2013-11-17 15:54:00,56.6,52.2,29.81,SW,226,5.0,15.0,85,0.00,,OVC029,0.01,VWS V14.01,2013-11-17 20:54:00,
2013-11-17 15:59:00,56.6,52.2,29.80,SW,215,5.0,15.0,85,0.00,,OVC029,0.01,VWS V14.01,2013-11-17 20:59:00,
2013-11-17 16:00:00,56.3,52.2,29.77,SSW,207,7.0,12.0,86,0.00,,OVC,0.01,VWS V14.01,2013-11-17 21:00:00,
2013-11-17 16:04:00,56.5,52.0,29.79,SW,236,8.0,9.0,85,0.00,,OVC029,0.01,VWS V14.01,2013-11-17 21:04:00,
2013-11-17 16:10:00,56.5,52.4,29.79,SW,219,8.0,11.0,86,0.00,,OVC029,0.01,VWS V14.01,2013-11-17 21:10:00,
2013-11-17 16:15:00,56.4,52.3,29.80,SSW,211,5.0,11.0,86,0.00,,OVC029,0.01,VWS V14.01,2013-11-17 21:15:00,
2013-11-17 16:20:00,56.4,52.3,29.80,South,187,4.0,11.0,86,0.00,,OVC029,0.01,VWS V14.01,2013-11-17 21:20:00,
2013-11-17 16:25:00,56.4,52.3,29.79,SSW,200,4.0,11.0,86,0.00,,OVC029,0.01,VWS V14.01,2013-11-17 21:25:00,
2013-11-17 16:30:00,56.4,52.3,29.78,SW,222,9.0,13.0,86,0.00,,OVC029,0.01,VWS V14.01,2013-11-17 21:30:00,
2013-11-17 16:35:00,56.3,52.2,29.78,SW,233,5.0,7.0,86,0.00,,OVC029,0.01,VWS V14.01,2013-11-17 21:35:00,
2013-11-17 16:40:00,56.3,52.2,29.78,SW,222,6.0,11.0,86,0.00,,OVC029,0.01,VWS V14.01,2013-11-17 21:40:00,
2013-11-17 16:45:00,56.3,52.2,29.78,WSW,241,12.0,12.0,86,0.00,,OVC021,0.01,VWS V14.01,2013-11-17 21:45:00,
2013-11-17 16:50:00,56.4,52.3,29.78,SSW,208,7.0,12.0,86,0.00,,OVC021,0.01,VWS V14.01,2013-11-17 21:50:00,
2013-11-17 16:56:00,56.3,52.2,29.77,SSW,208,7.0,12.0,86,0.00,,OVC021,0.01,VWS V14.01,2013-11-17 21:56:00,
2013-11-17 17:00:00,56.6,52.8,29.73,SSW,197,5.0,10.0,87,0.00,,OVC,0.01,VWS V14.01,2013-11-17 22:00:00,
2013-11-17 17:01:00,56.4,52.3,29.77,SW,226,8.0,12.0,86,0.00,,OVC021,0.01,VWS V14.01,2013-11-17 22:01:00,
2013-11-17 17:06:00,56.4,52.3,29.76,SW,215,4.0,10.0,86,0.00,,OVC021,0.01,VWS V14.01,2013-11-17 22:06:00,
2013-11-17 17:11:00,56.4,52.3,29.76,SSW,205,4.0,13.0,86,0.00,,OVC021,0.01,VWS V14.01,2013-11-17 22:11:00,
2013-11-17 17:16:00,56.3,52.2,29.76,SW,218,5.0,13.0,86,0.00,,OVC021,0.01,VWS V14.01,2013-11-17 22:16:00,
2013-11-17 17:21:00,56.4,52.3,29.76,SW,225,6.0,13.0,86,0.00,,OVC021,0.01,VWS V14.01,2013-11-17 22:21:00,
2013-11-17 17:26:00,56.4,52.3,29.76,SSW,205,8.0,13.0,86,0.00,,OVC021,0.01,VWS V14.01,2013-11-17 22:26:00,
2013-11-17 17:30:00,56.7,52.9,29.71,SSW,200,4.0,13.0,87,0.00,,OVC,0.01,VWS V14.01,2013-11-17 22:30:00,
2013-11-17 17:31:00,56.4,52.3,29.76,South,188,5.0,13.0,86,0.00,,OVC021,0.01,VWS V14.01,2013-11-17 22:31:00,
2013-11-17 17:37:00,56.4,52.3,29.76,SSW,196,5.0,8.0,86,0.00,,OVC021,0.01,VWS V14.01,2013-11-17 22:37:00,
2013-11-17 17:42:00,56.3,52.2,29.75,SSW,203,3.0,8.0,86,0.00,,OVC021,0.01,VWS V14.01,2013-11-17 22:42:00,
2013-11-17 17:47:00,56.3,52.5,29.75,South,190,4.0,8.0,87,0.00,,OVC021,0.01,VWS V14.01,2013-11-17 22:47:00,
2013-11-17 17:52:00,56.3,52.5,29.75,South,174,4.0,8.0,87,0.00,,OVC021,0.01,VWS V14.01,2013-11-17 22:52:00,
2013-11-17 17:57:00,56.5,52.7,29.75,SSW,205,3.0,8.0,87,0.00,,OVC021,0.01,VWS V14.01,2013-11-17 22:57:00,
2013-11-17 18:00:00,56.8,53.0,29.68,SW,226,10.0,12.0,87,0.00,,OVC,0.01,VWS V14.01,2013-11-17 23:00:00,
2013-11-17 18:02:00,56.6,52.8,29.73,South,190,5.0,10.0,87,0.00,,OVC021,0.01,VWS V14.01,2013-11-17 23:02:00,
2013-11-17 18:07:00,56.6,52.5,29.73,South,181,4.0,7.0,86,0.00,,OVC021,0.01,VWS V14.01,2013-11-17 23:07:00,
2013-11-17 18:12:00,56.7,52.6,29.73,SSW,211,5.0,13.0,86,0.00,,OVC021,0.01,VWS V14.01,2013-11-17 23:12:00,
2013-11-17 18:17:00,56.7,52.9,29.73,SSW,194,4.0,13.0,87,0.00,,OVC021,0.01,VWS V14.01,2013-11-17 23:17:00,
2013-11-17 18:22:00,56.7,52.9,29.73,SW,222,3.0,13.0,87,0.00,,OVC021,0.01,VWS V14.01,2013-11-17 23:22:00,
2013-11-17 18:28:00,56.7,52.9,29.72,SSW,202,5.0,13.0,87,0.00,,OVC021,0.01,VWS V14.01,2013-11-17 23:28:00,
2013-11-17 18:30:00,56.8,53.3,29.66,SW,221,5.0,15.0,88,0.00,,OVC,0.01,VWS V14.01,2013-11-17 23:30:00,
2013-11-17 18:33:00,56.7,52.9,29.71,SSW,203,6.0,13.0,87,0.00,,OVC021,0.01,VWS V14.01,2013-11-17 23:33:00,
2013-11-17 18:38:00,56.8,53.0,29.69,South,174,5.0,9.0,87,0.00,,OVC021,0.01,VWS V14.01,2013-11-17 23:38:00,
2013-11-17 18:43:00,56.8,53.0,29.69,SSW,208,3.0,9.0,87,0.00,,OVC021,0.01,VWS V14.01,2013-11-17 23:43:00,
2013-11-17 18:48:00,56.8,53.0,29.68,SW,229,5.0,11.0,87,0.00,,-RA,0.01,VWS V14.01,2013-11-17 23:48:00,
2013-11-17 18:53:00,56.7,52.9,29.68,SSW,204,3.0,11.0,87,0.00,,-RA,0.01,VWS V14.01,2013-11-17 23:53:00,
2013-11-17 18:59:00,56.7,52.9,29.67,SSW,208,6.0,11.0,87,0.00,,-RA,0.01,VWS V14.01,2013-11-17 23:59:00,
2013-11-17 19:00:00,57.0,53.5,29.64,SW,215,7.0,12.0,88,0.00,,OVC,0.01,VWS V14.01,2013-11-18 00:00:00,
2013-11-17 19:04:00,56.8,53.0,29.68,SSW,210,7.0,10.0,87,0.00,,-RA,0.01,VWS V14.01,2013-11-18 00:04:00,
2013-11-17 19:09:00,56.9,53.1,29.68,SSW,208,4.0,14.0,87,0.00,,-RA,0.01,VWS V14.01,2013-11-18 00:09:00,
2013-11-17 19:14:00,56.8,53.0,29.67,South,177,2.0,14.0,87,0.00,,-RA,0.01,VWS V14.01,2013-11-18 00:14:00,
2013-11-17 19:19:00,56.8,53.3,29.67,SSW,197,9.0,15.0,88,0.00,,OVC017,0.01,VWS V14.01,2013-11-18 00:19:00,
2013-11-17 19:24:00,56.8,53.3,29.67,SSW,200,6.0,15.0,88,0.00,,OVC017,0.01,VWS V14.01,2013-11-18 00:24:00,
2013-11-17 19:29:00,56.8,53.3,29.66,SSE,155,3.0,15.0,88,0.00,,OVC017,0.01,VWS V14.01,2013-11-18 00:29:00,
2013-11-17 19:30:00,57.8,54.0,29.59,SW,219,5.0,15.0,87,0.00,,OVC,0.01,VWS V14.01,2013-11-18 00:30:00,
2013-11-17 19:35:00,56.9,53.4,29.66,SSW,210,3.0,8.0,88,0.00,,OVC017,0.01,VWS V14.01,2013-11-18 00:35:00,
2013-11-17 19:40:00,56.9,53.4,29.65,South,184,5.0,8.0,88,0.00,,OVC017,0.01,VWS V14.01,2013-11-18 00:40:00,
2013-11-17 19:45:00,56.9,53.4,29.64,South,186,4.0,12.0,88,0.00,,OVC017,0.01,VWS V14.01,2013-11-18 00:45:00,
2013-11-17 19:50:00,56.9,53.4,29.64,South,180,5.0,12.0,88,0.00,,OVC017,0.01,VWS V14.01,2013-11-18 00:50:00,
2013-11-17 19:55:00,56.9,53.4,29.64,SSW,203,3.0,12.0,88,0.00,,OVC017,0.01,VWS V14.01,2013-11-18 00:55:00,
2013-11-17 20:00:00,56.9,53.4,29.63,South,169,4.0,12.0,88,0.00,,OVC017,0.01,VWS V14.01,2013-11-18 01:00:00,
2013-11-17 20:05:00,57.0,53.5,29.64,SW,218,5.0,7.0,88,0.00,,OVC017,0.01,VWS V14.01,2013-11-18 01:05:00,
2013-11-17 20:11:00,57.2,53.7,29.63,SW,219,6.0,15.0,88,0.00,,OVC017,0.01,VWS V14.01,2013-11-18 01:11:00,
2013-11-17 20:16:00,57.4,53.9,29.62,South,186,6.0,15.0,88,0.00,,OVC017,0.01,VWS V14.01,2013-11-18 01:16:00,
2013-11-17 20:21:00,57.6,53.8,29.61,SSW,205,3.0,15.0,87,0.00,,OVC017,0.01,VWS V14.01,2013-11-18 01:21:00,
2013-11-17 20:26:00,57.7,53.9,29.60,SSW,200,4.0,15.0,87,0.00,,OVC017,0.01,VWS V14.01,2013-11-18 01:26:00,
2013-11-17 20:30:00,57.6,54.4,29.53,SSW,197,9.0,19.0,89,0.00,,OVC,0.01,VWS V14.01,2013-11-18 01:30:00,
2013-11-17 20:31:00,57.8,54.0,29.59,SSW,208,4.0,15.0,87,0.00,,OVC017,0.01,VWS V14.01,2013-11-18 01:31:00,
2013-11-17 20:36:00,57.8,54.0,29.59,SW,218,6.0,11.0,87,0.00,,OVC017,0.01,VWS V14.01,2013-11-18 01:36:00,
2013-11-17 20:42:00,57.9,54.1,29.58,SSW,212,8.0,11.0,87,0.00,,OVC017,0.01,VWS V14.01,2013-11-18 01:42:00,
2013-11-17 20:47:00,57.9,54.1,29.56,South,169,10.0,11.0,87,0.00,,OVC016,0.01,VWS V14.01,2013-11-18 01:47:00,
2013-11-17 20:52:00,58.0,54.2,29.55,ESE,121,9.0,14.0,87,0.00,,OVC016,0.01,VWS V14.01,2013-11-18 01:52:00,
2013-11-17 20:57:00,57.9,54.1,29.52,South,188,13.0,16.0,87,0.00,,OVC016,0.01,VWS V14.01,2013-11-18 01:57:00,
2013-11-17 21:00:00,57.6,54.1,29.49,SW,219,9.0,18.0,88,0.00,,OVC,0.01,VWS V14.01,2013-11-18 02:00:00,
2013-11-17 21:02:00,57.8,54.3,29.52,SSW,208,13.0,18.0,88,0.00,,OVC016,0.01,VWS V14.01,2013-11-18 02:02:00,
2013-11-17 21:07:00,57.6,54.4,29.52,SSW,194,9.0,19.0,89,0.00,,OVC016,0.01,VWS V14.01,2013-11-18 02:07:00,
2013-11-17 21:12:00,57.6,54.4,29.52,SSW,205,13.0,19.0,89,0.00,,OVC016,0.01,VWS V14.01,2013-11-18 02:12:00,
2013-11-17 21:18:00,57.6,54.4,29.53,SSW,207,6.0,19.0,89,0.00,,OVC016,0.01,VWS V14.01,2013-11-18 02:18:00,
2013-11-17 21:23:00,57.5,54.3,29.53,SSW,203,8.0,19.0,89,0.00,,OVC016,0.01,VWS V14.01,2013-11-18 02:23:00,
2013-11-17 21:28:00,57.5,54.3,29.53,SW,224,11.0,19.0,89,0.00,,OVC016,0.01,VWS V14.01,2013-11-18 02:28:00,
2013-11-17 21:30:00,57.8,54.3,29.49,SSW,208,10.0,18.0,88,0.00,,OVC,0.01,VWS V14.01,2013-11-18 02:30:00,
2013-11-17 21:33:00,57.6,54.4,29.53,SSW,197,9.0,19.0,89,0.00,,OVC016,0.01,VWS V14.01,2013-11-18 02:33:00,
2013-11-17 21:38:00,57.7,54.2,29.53,SSW,204,6.0,14.0,88,0.00,,OVC016,0.01,VWS V14.01,2013-11-18 02:38:00,
2013-11-17 21:43:00,57.7,54.2,29.52,SW,229,11.0,14.0,88,0.00,,OVC016,0.01,VWS V14.01,2013-11-18 02:43:00,
2013-11-17 21:48:00,57.7,54.2,29.52,South,183,7.0,17.0,88,0.00,,-RA,0.01,VWS V14.01,2013-11-18 02:48:00,
2013-11-17 21:53:00,57.6,54.1,29.51,South,180,6.0,17.0,88,0.00,,-RA,0.01,VWS V14.01,2013-11-18 02:53:00,
2013-11-17 21:58:00,57.7,54.2,29.50,South,190,8.0,17.0,88,0.00,,-RA,0.01,VWS V14.01,2013-11-18 02:58:00,
2013-11-17 22:00:00,58.0,54.5,29.48,South,188,7.0,16.0,88,0.00,,OVC,0.01,VWS V14.01,2013-11-18 03:00:00,
2013-11-17 22:04:00,57.6,54.1,29.49,South,171,6.0,11.0,88,0.00,,-RA,0.01,VWS V14.01,2013-11-18 03:04:00,
2013-11-17 22:09:00,57.6,54.1,29.49,South,183,6.0,12.0,88,0.00,,-RA,0.01,VWS V14.01,2013-11-18 03:09:00,
2013-11-17 22:14:00,57.5,54.3,29.49,SSW,193,8.0,13.0,89,0.00,,-RA,0.01,VWS V14.01,2013-11-18 03:14:00,
2013-11-17 22:19:00,57.5,54.3,29.50,SSW,212,7.0,18.0,89,0.00,,-RA,0.01,VWS V14.01,2013-11-18 03:19:00,
2013-11-17 22:24:00,57.5,54.3,29.49,South,177,10.0,18.0,89,0.00,,-RA,0.01,VWS V14.01,2013-11-18 03:24:00,
2013-11-17 22:29:00,57.6,54.1,29.49,SSE,167,10.0,18.0,88,0.00,,-RA,0.01,VWS V14.01,2013-11-18 03:29:00,
2013-11-17 22:30:00,57.6,54.7,29.45,South,176,7.0,15.0,90,0.00,,OVC,0.01,VWS V14.01,2013-11-18 03:30:00,
2013-11-17 22:34:00,57.8,54.3,29.49,SW,228,9.0,12.0,88,0.00,,-RA,0.01,VWS V14.01,2013-11-18 03:34:00,
2013-11-17 22:39:00,57.8,54.3,29.49,SW,217,10.0,13.0,88,0.00,,-RA,0.01,VWS V14.01,2013-11-18 03:39:00,
2013-11-17 22:44:00,57.9,54.4,29.49,SSW,207,8.0,13.0,88,0.00,,-RA,0.01,VWS V14.01,2013-11-18 03:44:00,
2013-11-17 22:49:00,58.0,54.5,29.47,South,188,6.0,16.0,88,0.00,,-RA,0.01,VWS V14.01,2013-11-18 03:49:00,
2013-11-17 22:55:00,58.0,54.5,29.48,South,191,6.0,16.0,88,0.00,,-RA,0.01,VWS V14.01,2013-11-18 03:55:00,
2013-11-17 23:00:00,58.1,54.6,29.48,SSW,203,8.0,16.0,88,0.00,,-RA,0.01,VWS V14.01,2013-11-18 04:00:00,
2013-11-17 23:05:00,58.0,54.5,29.48,South,179,5.0,12.0,88,0.00,,-RA,0.01,VWS V14.01,2013-11-18 04:05:00,
2013-11-17 23:10:00,57.9,54.7,29.48,SW,225,8.0,15.0,89,0.00,,-RA,0.01,VWS V14.01,2013-11-18 04:10:00,
2013-11-17 23:15:00,57.8,54.6,29.47,WSW,239,9.0,15.0,89,0.00,,-RA,0.01,VWS V14.01,2013-11-18 04:15:00,
2013-11-17 23:20:00,57.7,54.8,29.46,SW,232,6.0,15.0,90,0.00,,-RA,0.01,VWS V14.01,2013-11-18 04:20:00,
2013-11-17 23:25:00,57.6,54.7,29.46,SW,229,11.0,15.0,90,0.00,,-RA,0.01,VWS V14.01,2013-11-18 04:25:00,
2013-11-17 23:30:00,57.6,54.7,29.45,SE,145,4.0,15.0,90,0.00,,-RA,0.01,VWS V14.01,2013-11-18 04:30:00,
2013-11-17 23:35:00,57.6,54.7,29.45,WSW,238,8.0,11.0,90,0.00,,-RA,0.01,VWS V14.01,2013-11-18 04:35:00,
2013-11-17 23:41:00,57.6,54.7,29.46,SSW,200,7.0,13.0,90,0.00,,-RA,0.01,VWS V14.01,2013-11-18 04:41:00,
2013-11-17 23:46:00,57.7,54.8,29.45,SW,222,8.0,13.0,90,0.00,,OVC045,0.01,VWS V14.01,2013-11-18 04:46:00,
2013-11-17 23:51:00,57.6,55.0,29.46,SW,233,5.0,13.0,91,0.00,,OVC045,0.01,VWS V14.01,2013-11-18 04:51:00,
2013-11-17 23:56:00,57.5,54.9,29.46,SW,226,10.0,13.0,91,0.00,,OVC045,0.01,VWS V14.01,2013-11-18 04:56:00,